Time;durP1;ratioP1;P1;durP2;ratioP2;P2;SDS_P1;SDS_P2;PMS_P1;PMS_P2;Temp;Humidity;BMP_temperature;BMP_pressure;BME280_temperature;BME280_humidity;BME280_pressure;Samples;Min_cycle;Max_cycle;Signal;HPM_P1;HPM_P2
2024/04/03 00:01:30;;;;;;;15.88;5.50;;;;;;;17.39;100.00;97151.50;5054796;28;20055;-76
2024/04/03 00:03:56;;;;;;;29.90;6.68;;;;;;;17.36;100.00;97138.63;5021556;28;20055;-74
2024/04/03 00:06:21;;;;;;;25.27;6.88;;;;;;;17.35;100.00;97148.53;5020859;28;20041;-75
2024/04/03 00:08:47;;;;;;;25.50;6.53;;;;;;;17.32;100.00;97134.84;5005022;28;20442;-75
2024/04/03 00:11:13;;;;;;;21.13;6.75;;;;;;;17.33;100.00;97126.53;5037866;28;20044;-76
2024/04/03 00:13:41;;;;;;;34.22;7.72;;;;;;;17.33;100.00;97129.22;5021020;28;20041;-75
2024/04/03 00:16:11;;;;;;;29.35;6.55;;;;;;;17.38;100.00;97128.41;5037764;28;20498;-76
2024/04/03 00:18:36;;;;;;;32.90;6.68;;;;;;;17.27;100.00;97126.75;5038098;28;20049;-75
2024/04/03 00:21:04;;;;;;;32.83;6.90;;;;;;;17.30;100.00;97131.63;5004470;28;20337;-76
2024/04/03 00:23:31;;;;;;;29.85;7.55;;;;;;;17.20;100.00;97128.88;5037557;28;20056;-75
2024/04/03 00:25:59;;;;;;;34.50;7.82;;;;;;;17.19;100.00;97124.59;5020406;28;20056;-75
2024/04/03 00:28:25;;;;;;;26.63;7.20;;;;;;;17.27;100.00;97110.66;5053530;28;20053;-75
2024/04/03 00:30:52;;;;;;;25.90;6.57;;;;;;;17.25;100.00;97112.81;5019612;28;20078;-75
2024/04/03 00:33:20;;;;;;;24.77;6.88;;;;;;;17.24;100.00;97109.31;5018317;28;20052;-73
2024/04/03 00:35:59;;;;;;;32.05;6.68;;;;;;;17.35;100.00;97094.88;5018010;28;20048;-75
2024/04/03 00:38:25;;;;;;;28.48;6.72;;;;;;;17.15;100.00;97108.19;4993395;28;20057;-75
2024/04/03 00:40:54;;;;;;;22.52;6.07;;;;;;;17.31;100.00;97109.09;4961484;28;20054;-74
2024/04/03 00:43:20;;;;;;;17.80;6.10;;;;;;;17.19;100.00;97103.13;4977031;28;20049;-75
2024/04/03 00:45:46;;;;;;;24.95;5.88;;;;;;;17.13;100.00;97107.66;4961466;28;20042;-74
2024/04/03 00:48:13;;;;;;;20.92;5.55;;;;;;;17.05;100.00;97099.31;4994660;28;20072;-76
2024/04/03 00:50:43;;;;;;;21.40;6.80;;;;;;;17.08;100.00;97096.91;4963431;28;20049;-75
2024/04/03 00:53:11;;;;;;;27.10;6.00;;;;;;;17.15;100.00;97096.66;4947523;28;21044;-75
2024/04/03 00:55:37;;;;;;;16.00;6.38;;;;;;;17.07;100.00;97073.84;4963159;28;20053;-75
2024/04/03 00:58:05;;;;;;;27.83;6.10;;;;;;;17.08;100.00;97091.56;4978345;28;20065;-75
2024/04/03 01:00:32;;;;;;;21.45;5.88;;;;;;;16.98;100.00;97096.84;4976764;28;20049;-74
2024/04/03 01:02:58;;;;;;;16.00;5.10;;;;;;;17.01;100.00;97079.41;4993727;28;20137;-74
2024/04/03 01:05:24;;;;;;;20.38;5.78;;;;;;;16.93;100.00;97091.44;4961279;28;20062;-74
2024/04/03 01:07:50;;;;;;;21.70;6.18;;;;;;;16.91;100.00;97095.47;4945422;28;20136;-73
2024/04/03 01:10:15;;;;;;;17.55;5.90;;;;;;;16.95;100.00;97075.09;4978255;28;20057;-74
2024/04/03 01:12:41;;;;;;;30.42;6.03;;;;;;;16.89;100.00;97066.25;4981236;28;20076;-75
2024/04/03 01:15:07;;;;;;;21.10;5.68;;;;;;;16.90;100.00;97065.16;4964500;28;20061;-75
2024/04/03 01:17:35;;;;;;;16.38;5.50;;;;;;;16.90;100.00;97072.41;4979388;28;20050;-74
2024/04/03 01:20:03;;;;;;;23.90;5.25;;;;;;;16.80;100.00;97073.16;4979258;28;20178;-75
2024/04/03 01:22:31;;;;;;;19.60;6.32;;;;;;;16.83;100.00;97051.19;4972078;28;20093;-75
2024/04/03 01:24:59;;;;;;;22.63;6.38;;;;;;;16.78;100.00;97048.47;4937706;28;20430;-75
2024/04/03 01:27:25;;;;;;;15.13;5.28;;;;;;;16.80;100.00;97046.34;4921319;28;20055;-75
2024/04/03 01:29:51;;;;;;;23.15;6.38;;;;;;;16.72;100.00;97044.97;4937506;29;20054;-74
2024/04/03 01:32:17;;;;;;;24.92;5.75;;;;;;;16.70;100.00;97038.25;4921562;29;20545;-74
2024/04/03 01:34:43;;;;;;;20.90;5.93;;;;;;;16.64;100.00;97036.59;4921062;28;20470;-74
2024/04/03 01:37:09;;;;;;;21.63;5.22;;;;;;;16.64;100.00;97036.59;4937448;29;20494;-75
2024/04/03 01:39:34;;;;;;;18.20;6.25;;;;;;;16.60;100.00;97038.19;4937111;29;20067;-75
2024/04/03 01:42:01;;;;;;;21.25;6.10;;;;;;;16.58;100.00;97037.63;4937018;29;20513;-74
2024/04/03 01:44:26;;;;;;;17.35;5.20;;;;;;;16.55;100.00;97020.22;4936833;29;20046;-75
2024/04/03 01:46:54;;;;;;;22.67;6.10;;;;;;;16.49;100.00;97031.16;4890623;29;20093;-75
2024/04/03 01:49:20;;;;;;;19.00;5.63;;;;;;;16.48;100.00;97041.06;4937423;29;20087;-75
2024/04/03 01:51:46;;;;;;;24.30;5.88;;;;;;;16.51;100.00;97029.03;4925001;28;20072;-76
2024/04/03 01:54:12;;;;;;;33.05;6.30;;;;;;;16.47;100.00;97030.59;4955848;28;20090;-75
2024/04/03 01:56:39;;;;;;;16.42;5.85;;;;;;;16.45;100.00;97022.81;4963107;28;20052;-76
2024/04/03 01:59:04;;;;;;;26.58;5.53;;;;;;;16.47;100.00;97011.84;4978541;28;20049;-75
2024/04/03 02:01:30;;;;;;;14.48;4.72;;;;;;;16.50;100.00;97020.19;4962519;28;20081;-75
2024/04/03 02:03:56;;;;;;;20.80;5.93;;;;;;;16.40;100.00;97009.38;4962371;28;20077;-75
2024/04/03 02:06:22;;;;;;;23.40;5.05;;;;;;;16.54;100.00;97013.22;5011661;28;20057;-75
2024/04/03 02:08:48;;;;;;;21.35;5.53;;;;;;;16.43;100.00;97002.69;4978760;28;20064;-75
2024/04/03 02:11:13;;;;;;;20.35;4.95;;;;;;;16.49;100.00;96989.13;4993865;28;20100;-75
2024/04/03 02:13:40;;;;;;;24.00;5.63;;;;;;;16.42;100.00;96988.47;4978466;28;20141;-75
2024/04/03 02:16:06;;;;;;;16.90;5.00;;;;;;;16.49;100.00;96982.94;5029320;28;20131;-75
2024/04/03 02:18:32;;;;;;;20.73;4.63;;;;;;;16.44;100.00;96986.41;5051396;28;20044;-75
2024/04/03 02:20:58;;;;;;;29.77;5.82;;;;;;;16.42;100.00;96985.03;5018270;28;20075;-75
2024/04/03 02:23:24;;;;;;;28.25;6.18;;;;;;;16.39;100.00;96974.81;5051356;28;20397;-73
2024/04/03 02:25:50;;;;;;;20.60;5.10;;;;;;;16.39;100.00;96975.63;5051748;28;20359;-75
2024/04/03 02:28:16;;;;;;;29.35;6.05;;;;;;;16.34;100.00;96974.78;5002375;28;20515;-75
2024/04/03 02:30:42;;;;;;;19.55;4.82;;;;;;;16.37;100.00;96961.69;5018292;28;20541;-74
2024/04/03 02:33:08;;;;;;;24.67;4.90;;;;;;;16.33;100.00;96971.28;5034684;28;20041;-76
2024/04/03 02:35:34;;;;;;;25.52;6.03;;;;;;;16.22;100.00;96976.84;5018594;28;20067;-75
2024/04/03 02:38:00;;;;;;;20.80;5.28;;;;;;;16.25;100.00;96968.31;5051921;28;20045;-74
2024/04/03 02:40:27;;;;;;;20.52;6.00;;;;;;;16.32;100.00;96968.88;5035047;28;20136;-74
2024/04/03 02:42:53;;;;;;;29.50;5.95;;;;;;;16.27;100.00;96977.69;5019232;28;20075;-76
2024/04/03 02:45:19;;;;;;;20.98;6.05;;;;;;;16.16;100.00;96976.00;5034552;28;20071;-76
2024/04/03 02:47:44;;;;;;;20.63;5.68;;;;;;;16.14;100.00;96970.13;5018456;28;20547;-75
2024/04/03 02:50:10;;;;;;;28.88;6.45;;;;;;;16.08;100.00;96965.75;5035015;28;20076;-76
2024/04/03 02:52:36;;;;;;;19.17;4.97;;;;;;;16.17;100.00;96963.44;5034794;28;20083;-74
2024/04/03 02:55:04;;;;;;;33.42;6.10;;;;;;;16.04;100.00;96969.22;5018312;28;20043;-75
2024/04/03 02:57:33;;;;;;;27.50;5.38;;;;;;;16.14;100.00;96962.09;4993769;28;20049;-75
2024/04/03 02:59:58;;;;;;;17.17;4.97;;;;;;;16.05;100.00;96977.00;4994085;28;20467;-74
2024/04/03 03:02:24;;;;;;;24.08;5.20;;;;;;;16.01;100.00;96953.66;4994718;28;20057;-75
2024/04/03 03:04:51;;;;;;;15.27;5.28;;;;;;;16.00;100.00;96973.47;4994463;28;20547;-75
2024/04/03 03:07:17;;;;;;;19.08;5.43;;;;;;;15.97;100.00;96963.28;4978282;28;20045;-76
2024/04/03 03:09:45;;;;;;;30.77;6.38;;;;;;;15.97;100.00;96977.50;4993907;28;20067;-76
2024/04/03 03:12:11;;;;;;;19.27;5.43;;;;;;;15.94;100.00;96966.47;4961820;28;20057;-75
2024/04/03 03:14:37;;;;;;;21.55;5.53;;;;;;;15.89;100.00;96966.44;4961674;28;20159;-75
2024/04/03 03:17:04;;;;;;;22.88;5.88;;;;;;;15.98;100.00;96968.38;4961568;28;20045;-76
2024/04/03 03:19:31;;;;;;;18.10;4.85;;;;;;;15.88;100.00;96965.66;5011037;28;20057;-75
2024/04/03 03:21:58;;;;;;;27.00;5.47;;;;;;;15.78;100.00;96954.84;4995405;28;20064;-74
2024/04/03 03:24:24;;;;;;;24.42;6.47;;;;;;;15.79;100.00;96953.00;5000085;28;20067;-75
2024/04/03 03:26:50;;;;;;;19.83;5.55;;;;;;;15.92;100.00;96985.47;4984566;28;20046;-75
2024/04/03 03:29:16;;;;;;;24.00;6.18;;;;;;;15.88;100.00;96952.25;4983678;28;20518;-75
2024/04/03 03:31:42;;;;;;;40.83;6.63;;;;;;;15.85;100.00;96974.16;4958918;28;20058;-72
2024/04/03 03:34:09;;;;;;;26.40;5.85;;;;;;;15.84;100.00;96963.72;4970519;28;20054;-72
2024/04/03 03:36:36;;;;;;;24.88;5.80;;;;;;;15.88;100.00;96962.16;4984595;28;20083;-71
2024/04/03 03:39:02;;;;;;;29.80;6.00;;;;;;;15.91;100.00;96969.66;5016695;28;20052;-73
2024/04/03 03:41:29;;;;;;;26.45;5.53;;;;;;;15.91;100.00;96973.16;4984318;28;20061;-72
2024/04/03 03:43:55;;;;;;;21.27;5.95;;;;;;;15.86;100.00;97018.59;5033616;28;20048;-76
2024/04/03 03:46:22;;;;;;;19.52;5.05;;;;;;;15.91;100.00;96967.00;4968360;28;20408;-75
2024/04/03 03:54:33;;;;;;;18.10;4.93;;;;;;;15.89;100.00;96979.81;4986934;28;20072;-76
2024/04/03 03:56:59;;;;;;;25.33;6.10;;;;;;;15.86;100.00;96997.19;5016857;28;20146;-73
2024/04/03 03:59:27;;;;;;;20.40;5.85;;;;;;;15.98;100.00;96989.81;4968162;28;20038;-75
2024/04/03 04:01:54;;;;;;;24.63;6.13;;;;;;;15.84;100.00;96983.25;5037766;28;20068;-77
2024/04/03 04:04:21;;;;;;;16.83;4.65;;;;;;;15.88;100.00;96997.75;5038970;28;20045;-76
2024/04/03 04:06:50;;;;;;;21.02;5.55;;;;;;;15.92;100.00;96982.78;5023431;28;20048;-76
2024/04/03 04:09:37;;;;;;;22.25;4.65;;;;;;;16.15;100.00;97000.34;5056144;28;20541;-76
2024/04/03 04:12:04;;;;;;;19.10;5.43;;;;;;;15.98;100.00;96984.44;5055514;28;20041;-75
2024/04/03 04:14:29;;;;;;;21.77;5.05;;;;;;;15.96;100.00;96991.13;5006486;28;20505;-76
2024/04/03 04:16:58;;;;;;;19.17;4.75;;;;;;;15.98;100.00;96994.34;5019080;28;20053;-75
2024/04/03 04:19:24;;;;;;;29.45;6.55;;;;;;;15.99;100.00;97017.38;5018234;28;20515;-77
2024/04/03 04:21:52;;;;;;;20.10;5.57;;;;;;;16.01;100.00;96994.63;4988508;28;20053;-78
2024/04/03 04:24:23;;;;;;;25.73;5.50;;;;;;;15.93;100.00;97021.09;5018103;28;20042;-78
2024/04/03 04:27:00;;;;;;;23.02;5.95;;;;;;;15.72;100.00;97000.53;5003640;28;20146;-78
2024/04/03 04:29:28;;;;;;;23.67;5.22;;;;;;;15.78;100.00;97008.38;4987364;28;20439;-79
2024/04/03 04:31:54;;;;;;;30.17;6.20;;;;;;;15.72;100.00;97011.25;4983677;28;20057;-76
2024/04/03 04:34:20;;;;;;;29.65;6.20;;;;;;;15.74;100.00;97017.97;5000054;28;20052;-78
2024/04/03 04:36:45;;;;;;;17.65;4.88;;;;;;;15.92;100.00;97009.56;4983606;28;20357;-77
2024/04/03 04:39:12;;;;;;;17.70;4.68;;;;;;;16.04;100.00;97020.91;4983732;28;20092;-78
2024/04/03 04:41:38;;;;;;;29.38;4.72;;;;;;;16.06;100.00;97012.59;4944238;28;20102;-77
2024/04/03 04:44:07;;;;;;;15.15;4.57;;;;;;;16.17;100.00;96998.25;4944284;28;20050;-76
2024/04/03 04:46:33;;;;;;;19.13;3.83;;;;;;;16.18;100.00;97005.19;4928384;28;20062;-76
2024/04/03 04:48:59;;;;;;;15.65;4.88;;;;;;;16.12;100.00;97007.03;4943974;28;20046;-77
2024/04/03 04:51:25;;;;;;;23.70;5.35;;;;;;;16.03;100.00;96991.69;4942033;28;20070;-77
2024/04/03 04:53:51;;;;;;;27.50;5.22;;;;;;;16.03;100.00;97003.22;4922482;29;20055;-77
2024/04/03 04:56:23;;;;;;;29.80;5.32;;;;;;;16.17;100.00;97004.41;4906742;29;20178;-78
2024/04/03 04:58:51;;;;;;;18.48;4.78;;;;;;;16.11;100.00;97004.63;4938474;29;20066;-72
2024/04/03 05:01:17;;;;;;;24.95;4.72;;;;;;;16.03;100.00;97013.94;4904111;29;20059;-72
2024/04/03 05:03:45;;;;;;;17.30;4.28;;;;;;;16.09;100.00;97036.19;4890022;29;20069;-72
2024/04/03 05:06:15;;;;;;;31.25;5.70;;;;;;;16.16;100.00;97018.06;4921874;29;20063;-72
2024/04/03 05:08:42;;;;;;;16.48;4.45;;;;;;;16.13;100.00;97029.28;4881956;29;20058;-72
2024/04/03 05:11:12;;;;;;;19.03;5.57;;;;;;;16.22;100.00;97017.81;4884604;29;20479;-72
2024/04/03 05:13:39;;;;;;;20.50;5.40;;;;;;;16.16;100.00;97010.81;4902870;28;20051;-72
2024/04/03 05:16:09;;;;;;;26.25;5.10;;;;;;;16.25;100.00;97011.16;4938108;29;20129;-72
2024/04/03 05:18:35;;;;;;;30.52;5.13;;;;;;;16.30;100.00;97040.63;4905831;29;20134;-72
2024/04/03 05:21:07;;;;;;;27.52;5.55;;;;;;;16.40;100.00;97030.00;4937487;28;20066;-72
2024/04/03 05:23:39;;;;;;;23.23;4.40;;;;;;;16.35;100.00;97032.63;4938557;28;20394;-72
2024/04/03 05:26:06;;;;;;;23.95;5.15;;;;;;;16.46;100.00;97045.88;4956496;28;20378;-72
2024/04/03 05:28:33;;;;;;;14.85;4.22;;;;;;;16.50;100.00;97062.22;4956749;28;20517;-72
2024/04/03 05:31:04;;;;;;;16.52;4.57;;;;;;;16.64;100.00;97058.03;4956983;28;20077;-72
2024/04/03 05:33:34;;;;;;;23.27;4.72;;;;;;;16.71;100.00;97045.25;4982775;28;20566;-72
2024/04/03 05:36:03;;;;;;;25.77;5.15;;;;;;;16.79;100.00;97052.75;4999186;28;20124;-72
2024/04/03 05:38:29;;;;;;;20.30;4.60;;;;;;;16.73;100.00;97053.81;4981906;28;20041;-72
2024/04/03 05:40:55;;;;;;;20.77;4.30;;;;;;;16.84;100.00;97016.09;4993818;28;20045;-72
2024/04/03 05:43:26;;;;;;;24.30;5.03;;;;;;;17.00;100.00;97003.56;5010265;28;20041;-72
2024/04/03 05:45:58;;;;;;;23.58;4.90;;;;;;;17.06;100.00;97018.59;4996557;28;20048;-72
2024/04/03 05:48:28;;;;;;;16.65;4.75;;;;;;;17.02;100.00;97030.09;4989144;28;20107;-71
2024/04/03 05:51:04;;;;;;;26.35;5.07;;;;;;;17.20;100.00;97049.22;4981218;28;20049;-72
2024/04/03 05:53:30;;;;;;;21.98;5.03;;;;;;;17.20;100.00;97024.28;4981308;28;20041;-72
2024/04/03 05:56:00;;;;;;;19.83;4.13;;;;;;;17.23;100.00;97018.38;4980583;28;20507;-72
2024/04/03 05:58:28;;;;;;;24.90;4.95;;;;;;;17.25;100.00;97013.56;4980028;28;20157;-72
2024/04/03 06:00:55;;;;;;;14.00;3.60;;;;;;;17.37;100.00;97033.72;4951114;28;20062;-71
2024/04/03 06:03:21;;;;;;;31.80;5.15;;;;;;;17.39;100.00;96990.53;4983030;28;20053;-71
2024/04/03 06:05:59;;;;;;;19.42;4.28;;;;;;;17.72;100.00;97036.53;4968850;28;20049;-71
2024/04/03 06:08:26;;;;;;;20.98;4.05;;;;;;;17.68;100.00;97031.97;4962575;28;20491;-69
2024/04/03 06:10:53;;;;;;;21.88;4.50;;;;;;;17.75;100.00;97011.00;4961224;28;20164;-70
2024/04/03 06:13:19;;;;;;;21.98;4.15;;;;;;;17.86;100.00;97018.00;4944296;28;20129;-71
2024/04/03 06:15:46;;;;;;;22.63;4.32;;;;;;;17.91;100.00;97031.44;4962208;28;20042;-70
2024/04/03 06:18:13;;;;;;;12.32;3.63;;;;;;;17.99;100.00;97017.50;4944922;28;20035;-70
2024/04/03 06:20:40;;;;;;;15.45;3.80;;;;;;;18.05;100.00;97011.84;4936848;28;20063;-71
2024/04/03 06:23:08;;;;;;;22.80;4.35;;;;;;;18.17;100.00;97016.94;4935252;29;20084;-72
2024/04/03 06:25:36;;;;;;;33.70;4.55;;;;;;;18.11;100.00;97012.66;4935899;29;20074;-72
2024/04/03 06:28:06;;;;;;;13.98;3.83;;;;;;;18.25;100.00;97013.72;4935842;28;20058;-71
2024/04/03 06:30:32;;;;;;;15.30;3.72;;;;;;;18.17;100.00;96998.16;4952234;28;20043;-71
2024/04/03 06:32:58;;;;;;;25.83;4.05;;;;;;;18.20;100.00;97032.53;4951688;28;20043;-71
2024/04/03 06:35:24;;;;;;;12.65;3.13;;;;;;;18.24;100.00;97012.09;4935407;29;20508;-70
2024/04/03 06:37:54;;;;;;;19.70;3.10;;;;;;;18.30;98.24;97011.00;4952091;28;20133;-71
2024/04/03 06:40:20;;;;;;;19.10;3.33;;;;;;;18.40;95.80;97003.00;4967379;28;20549;-71
2024/04/03 06:42:50;;;;;;;26.80;2.95;;;;;;;18.56;94.75;97004.56;4979767;28;20050;-71
2024/04/03 06:45:16;;;;;;;11.40;2.45;;;;;;;18.53;89.58;97015.06;5014506;28;20069;-72
2024/04/03 06:47:42;;;;;;;15.95;2.63;;;;;;;18.55;85.63;97069.34;4998005;28;20103;-72
2024/04/03 06:50:08;;;;;;;16.70;2.70;;;;;;;18.66;84.72;96998.34;5014294;28;20040;-71
2024/04/03 06:52:34;;;;;;;15.43;2.72;;;;;;;18.83;84.19;96998.84;5014785;28;20053;-71
2024/04/03 06:55:00;;;;;;;10.27;2.80;;;;;;;18.86;78.10;97006.38;5047151;28;20046;-72
2024/04/03 06:57:26;;;;;;;22.85;3.45;;;;;;;18.89;78.09;96993.19;4997017;28;20475;-71
2024/04/03 06:59:55;;;;;;;10.38;2.58;;;;;;;18.88;74.46;97020.34;4982266;28;20069;-71
2024/04/03 07:02:24;;;;;;;9.77;2.00;;;;;;;19.07;73.76;97019.47;5030994;28;20124;-71
2024/04/03 07:04:50;;;;;;;13.15;2.95;;;;;;;19.01;73.59;96976.72;4997637;28;20433;-70
2024/04/03 07:07:16;;;;;;;14.07;2.60;;;;;;;19.23;73.06;96980.66;5018857;28;20739;-71
2024/04/03 07:09:42;;;;;;;11.00;1.90;;;;;;;19.40;71.69;96965.00;5007528;28;20388;-71
2024/04/03 07:12:08;;;;;;;8.80;1.85;;;;;;;19.44;66.81;97035.19;5024741;28;20071;-71
2024/04/03 07:14:34;;;;;;;19.98;2.53;;;;;;;19.46;67.46;96979.22;5041825;28;20037;-71
2024/04/03 07:17:03;;;;;;;10.77;2.30;;;;;;;19.66;67.20;96934.13;5008360;28;20044;-72
2024/04/03 07:19:29;;;;;;;15.57;2.40;;;;;;;20.01;64.06;96954.56;5012143;28;20084;-72
2024/04/03 07:21:55;;;;;;;14.00;2.03;;;;;;;20.47;62.12;96954.94;5022523;28;20049;-70
2024/04/03 07:24:22;;;;;;;12.65;2.05;;;;;;;20.45;57.28;96957.16;5043002;28;20040;-71
2024/04/03 07:26:48;;;;;;;13.73;2.10;;;;;;;20.53;57.26;96943.03;5025615;28;20130;-70
2024/04/03 07:29:18;;;;;;;16.35;1.80;;;;;;;20.77;55.81;96970.81;5024920;28;20083;-72
2024/04/03 07:31:45;;;;;;;11.93;2.38;;;;;;;21.09;55.12;96933.22;5004384;28;20061;-78
2024/04/03 07:34:11;;;;;;;35.70;4.40;;;;;;;21.33;52.06;96950.97;4970436;28;20046;-70
2024/04/03 07:36:39;;;;;;;28.85;3.88;;;;;;;22.53;46.85;96932.00;4971730;28;20050;-70
2024/04/03 07:39:05;;;;;;;12.70;3.42;;;;;;;24.47;42.38;96960.41;4983350;28;20050;-70
2024/04/03 07:41:33;;;;;;;8.75;3.63;;;;;;;26.61;37.54;96931.56;4959190;28;20034;-72
2024/04/03 07:44:00;;;;;;;15.35;3.05;;;;;;;28.37;33.31;96928.28;4965142;28;20429;-72
2024/04/03 07:46:27;;;;;;;14.63;2.92;;;;;;;28.97;30.51;96917.47;4951050;28;20056;-72
2024/04/03 07:48:53;;;;;;;16.70;2.55;;;;;;;27.31;31.37;96936.38;4974051;28;20061;-72
2024/04/03 07:51:21;;;;;;;9.45;1.60;;;;;;;26.36;33.07;96902.50;4993040;28;20076;-72
2024/04/03 07:53:47;;;;;;;11.55;1.70;;;;;;;25.57;33.25;96893.97;4976745;28;20058;-71
2024/04/03 07:56:14;;;;;;;7.28;1.58;;;;;;;25.12;34.15;96911.66;4976659;28;20132;-71
2024/04/03 07:58:41;;;;;;;20.42;4.53;;;;;;;25.00;35.93;96935.09;4993159;28;20393;-72
2024/04/03 08:01:08;;;;;;;17.35;2.70;;;;;;;24.72;35.42;96918.25;4972561;28;20046;-72
2024/04/03 08:03:34;;;;;;;14.48;2.60;;;;;;;23.92;36.70;96910.28;4960810;28;20042;-71
2024/04/03 08:06:05;;;;;;;9.57;2.22;;;;;;;23.76;38.01;96894.69;5005448;28;20404;-71
2024/04/03 08:08:33;;;;;;;11.67;2.70;;;;;;;23.07;39.63;96885.16;5011954;28;20604;-72
2024/04/03 08:11:02;;;;;;;24.45;5.13;;;;;;;23.64;39.83;96895.25;5050620;28;20044;-71
2024/04/03 08:13:28;;;;;;;24.98;3.90;;;;;;;24.50;38.07;96889.25;5019000;28;20049;-71
2024/04/03 08:16:02;;;;;;;18.90;2.28;;;;;;;23.57;38.19;96927.38;5011239;28;20407;-71
2024/04/03 08:18:28;;;;;;;29.92;2.30;;;;;;;23.10;39.29;96941.41;5017814;28;20168;-72
2024/04/03 08:21:10;;;;;;;16.67;2.05;;;;;;;22.81;40.82;96884.91;5010784;28;20080;-72
2024/04/03 08:23:39;;;;;;;35.53;3.55;;;;;;;21.70;42.49;96936.63;5018574;28;20068;-72
2024/04/03 08:26:08;;;;;;;19.50;1.92;;;;;;;21.73;44.06;96879.31;4963702;28;20061;-72
2024/04/03 08:28:42;;;;;;;29.30;5.20;;;;;;;22.72;42.35;96869.69;4996062;28;20474;-71
2024/04/03 08:31:16;;;;;;;23.30;4.18;;;;;;;22.72;42.36;96891.31;4965648;28;20420;-71
2024/04/03 08:33:53;;;;;;;17.13;2.38;;;;;;;23.74;39.21;96886.06;4991303;28;20107;-74
2024/04/03 08:36:19;;;;;;;21.60;4.60;;;;;;;23.45;38.95;96889.19;5029784;28;20052;-72
2024/04/03 08:38:48;;;;;;;15.18;2.58;;;;;;;23.40;38.35;96892.03;5018767;28;20045;-72
2024/04/03 08:41:15;;;;;;;8.50;2.30;;;;;;;23.96;36.66;96964.69;4986361;28;20056;-72
2024/04/03 08:43:42;;;;;;;14.50;3.92;;;;;;;24.28;37.24;96858.69;4992753;28;20048;-72
2024/04/03 08:46:09;;;;;;;15.40;2.22;;;;;;;23.81;36.30;96867.47;4975020;28;20089;-71
2024/04/03 08:48:38;;;;;;;27.70;2.60;;;;;;;23.06;37.69;96941.19;5006948;28;20037;-74
2024/04/03 08:51:06;;;;;;;34.47;2.90;;;;;;;23.15;37.35;96919.66;5008490;28;20131;-72
2024/04/03 08:53:32;;;;;;;29.73;2.20;;;;;;;21.98;39.56;96943.78;5023884;28;20044;-72
2024/04/03 08:56:00;;;;;;;10.38;4.18;;;;;;;23.92;37.38;96876.94;5024369;28;20107;-72
2024/04/03 08:58:26;;;;;;;21.58;2.65;;;;;;;22.95;36.09;96901.13;5013802;28;20578;-71
2024/04/03 09:00:54;;;;;;;53.72;3.45;;;;;;;21.29;40.29;96933.75;5025951;28;20055;-72
2024/04/03 09:03:22;;;;;;;24.52;3.22;;;;;;;20.88;43.06;96983.09;4953955;28;20046;-73
2024/04/03 09:05:52;;;;;;;13.75;2.22;;;;;;;21.56;43.05;96849.34;4942043;28;20070;-72
2024/04/03 09:08:19;;;;;;;9.13;2.13;;;;;;;21.65;42.71;96851.09;4931644;28;20058;-69
2024/04/03 09:11:01;;;;;;;5.53;2.15;;;;;;;21.57;42.99;96877.97;4947405;28;20051;-69
2024/04/03 09:13:27;;;;;;;21.90;2.40;;;;;;;20.70;43.22;96828.22;4913729;28;20062;-71
2024/04/03 09:15:53;;;;;;;22.60;2.63;;;;;;;20.70;42.76;96825.50;4916062;28;20478;-71
2024/04/03 09:18:20;;;;;;;23.38;4.10;;;;;;;20.75;43.77;96865.91;4930028;28;20058;-71
2024/04/03 09:20:51;;;;;;;44.05;3.17;;;;;;;20.38;44.15;96892.78;4927825;29;20055;-71
2024/04/03 09:23:18;;;;;;;20.02;2.30;;;;;;;19.88;45.26;96995.63;4899069;28;20062;-74
2024/04/03 09:25:44;;;;;;;18.10;4.68;;;;;;;19.70;47.92;96940.53;4907215;28;20058;-74
2024/04/03 09:28:11;;;;;;;28.30;5.90;;;;;;;21.86;43.94;96924.53;4898663;28;20055;-73
2024/04/03 09:30:47;;;;;;;26.45;5.63;;;;;;;23.20;41.20;96843.72;4917211;28;20053;-74
2024/04/03 09:33:14;;;;;;;12.98;2.50;;;;;;;23.44;38.33;96881.38;4951710;28;20385;-74
2024/04/03 09:35:42;;;;;;;32.75;3.00;;;;;;;21.80;39.01;96963.53;4949468;28;20042;-73
2024/04/03 09:38:10;;;;;;;23.05;2.67;;;;;;;21.07;41.87;96870.63;4934589;28;20104;-74
2024/04/03 09:40:38;;;;;;;12.63;2.40;;;;;;;20.63;44.26;96879.00;4963713;28;20049;-75
2024/04/03 09:43:12;;;;;;;17.42;2.00;;;;;;;20.22;45.78;96899.41;4971203;28;20077;-73
2024/04/03 09:45:41;;;;;;;12.68;2.42;;;;;;;19.77;46.62;96862.91;5005990;28;20080;-73
2024/04/03 09:48:10;;;;;;;14.50;2.20;;;;;;;19.81;46.48;96861.28;4966205;28;20045;-74
2024/04/03 09:50:40;;;;;;;16.25;2.00;;;;;;;20.08;46.49;96841.91;4979479;28;20064;-73
2024/04/03 09:53:07;;;;;;;7.32;1.73;;;;;;;19.57;47.36;96902.69;4981305;28;20140;-73
2024/04/03 09:55:36;;;;;;;12.43;1.98;;;;;;;19.25;49.35;96900.44;4997911;28;20049;-73
2024/04/03 09:58:03;;;;;;;30.88;2.97;;;;;;;18.70;49.72;97051.31;4965852;28;20057;-73
2024/04/03 10:00:30;;;;;;;25.58;2.78;;;;;;;18.26;51.12;96849.59;4978279;28;20149;-74
2024/04/03 10:02:58;;;;;;;19.90;2.65;;;;;;;18.20;53.26;96903.59;4942484;28;20104;-73
2024/04/03 10:05:40;;;;;;;21.13;2.50;;;;;;;18.32;54.17;97007.00;4920288;28;20047;-74
2024/04/03 10:08:12;;;;;;;19.77;1.95;;;;;;;18.24;58.21;96986.06;4920251;29;20387;-74
2024/04/03 10:10:46;;;;;;;12.57;2.15;;;;;;;18.18;63.59;96943.34;4920391;29;20082;-71
2024/04/03 10:13:21;;;;;;;15.75;2.60;;;;;;;18.06;67.29;96913.28;4936315;28;20146;-73
2024/04/03 10:16:05;;;;;;;5.88;1.95;;;;;;;18.13;66.27;97043.53;4936094;29;20047;-74
2024/04/03 10:18:40;;;;;;;11.55;2.17;;;;;;;17.88;57.98;97056.94;4904797;28;20047;-74
2024/04/03 10:21:11;;;;;;;10.45;1.90;;;;;;;18.51;51.56;97052.97;4936106;29;20047;-74
2024/04/03 10:23:40;;;;;;;9.20;1.90;;;;;;;18.12;52.19;96993.59;4935474;29;20059;-73
2024/04/03 10:26:08;;;;;;;12.32;1.80;;;;;;;17.72;53.05;97073.28;4935663;29;20069;-74
2024/04/03 10:28:34;;;;;;;7.32;3.17;;;;;;;18.61;50.59;97001.03;4935755;28;20058;-73
2024/04/03 10:31:03;;;;;;;14.25;1.95;;;;;;;19.31;45.86;97006.22;4951606;28;20054;-74
2024/04/03 10:33:30;;;;;;;10.10;1.65;;;;;;;18.83;46.40;97001.53;4954882;28;20109;-73
2024/04/03 10:35:57;;;;;;;9.48;1.48;;;;;;;18.92;45.71;97016.84;4945443;28;20077;-74
2024/04/03 10:38:26;;;;;;;9.18;1.08;;;;;;;19.12;43.84;97080.50;4945661;28;20042;-74
2024/04/03 10:40:52;;;;;;;12.07;3.42;;;;;;;19.42;44.33;96962.03;4948549;28;20056;-74
2024/04/03 10:43:21;;;;;;;5.50;3.72;;;;;;;20.79;41.11;97111.63;4980863;28;20045;-74
2024/04/03 10:45:52;;;;;;;13.98;1.10;;;;;;;20.05;40.56;97020.25;5030664;28;20440;-74
2024/04/03 10:48:24;;;;;;;10.38;2.42;;;;;;;19.43;42.71;97049.75;4983161;28;20037;-74
2024/04/03 10:50:53;;;;;;;7.03;1.00;;;;;;;19.10;42.00;97018.09;4998727;28;20045;-73
2024/04/03 10:53:21;;;;;;;8.00;1.27;;;;;;;18.88;43.39;96967.34;5014587;28;20042;-74
2024/04/03 10:55:50;;;;;;;4.53;1.40;;;;;;;18.48;44.71;97048.13;5012202;28;20049;-74
2024/04/03 10:58:21;;;;;;;4.95;3.28;;;;;;;18.95;45.46;97012.78;5014057;28;20388;-75
2024/04/03 11:00:47;;;;;;;6.07;2.90;;;;;;;19.90;42.41;97098.50;5033173;28;20069;-75
2024/04/03 11:03:15;;;;;;;6.47;0.77;;;;;;;19.74;41.12;97081.59;5005633;28;20049;-74
2024/04/03 11:05:41;;;;;;;3.10;0.88;;;;;;;19.03;42.25;97057.94;5014310;28;20037;-74
2024/04/03 11:08:12;;;;;;;9.55;1.10;;;;;;;18.39;44.36;97061.28;5031372;28;20060;-75
2024/04/03 11:10:38;;;;;;;2.88;0.70;;;;;;;17.99;46.34;97066.63;4997014;28;20083;-76
2024/04/03 11:13:26;;;;;;;7.60;1.10;;;;;;;18.00;47.04;97070.13;4997119;28;20049;-76
2024/04/03 11:15:59;;;;;;;6.72;0.90;;;;;;;17.86;46.74;97034.13;4990804;28;20130;-75
2024/04/03 11:19:17;;;;;;;1.73;0.85;;;;;;;18.69;45.52;97105.34;4995560;28;20200;-75
2024/04/03 11:21:47;;;;;;;1.50;0.63;;;;;;;18.61;45.01;97046.75;4952553;28;20049;-73
2024/04/03 11:24:16;;;;;;;17.88;1.05;;;;;;;17.83;46.70;97011.31;4977245;28;20165;-74
2024/04/03 11:26:47;;;;;;;5.28;0.75;;;;;;;17.28;49.13;97047.91;4988827;28;20078;-72
2024/04/03 11:29:34;;;;;;;0.40;0.40;;;;;;;17.00;50.90;97049.16;4968477;28;20068;-75
2024/04/03 11:32:06;;;;;;;2.05;0.85;;;;;;;17.13;51.39;97013.00;4958981;28;20137;-78